sensor_id;sensor_type;location;lat;lon;timestamp;P1;durP1;ratioP1;P2;durP2;ratioP2
78368;SDS011;71113;43.092;-89.268;2023-07-08T00:01:14;8.63;;;4.38;;
78368;SDS011;71113;43.092;-89.268;2023-07-08T00:03:41;9.32;;;4.25;;
78368;SDS011;71113;43.092;-89.268;2023-07-08T00:06:12;9.98;;;4.60;;
78368;SDS011;71113;43.092;-89.268;2023-07-08T00:11:16;9.63;;;4.60;;
78368;SDS011;71113;43.092;-89.268;2023-07-08T00:13:42;12.10;;;6.18;;
78368;SDS011;71113;43.092;-89.268;2023-07-08T00:16:12;10.52;;;5.65;;
78368;SDS011;71113;43.092;-89.268;2023-07-08T00:18:40;14.20;;;6.93;;
78368;SDS011;71113;43.092;-89.268;2023-07-08T00:21:10;13.70;;;6.90;;
78368;SDS011;71113;43.092;-89.268;2023-07-08T00:23:40;14.05;;;6.70;;
78368;SDS011;71113;43.092;-89.268;2023-07-08T00:26:29;14.13;;;6.80;;
78368;SDS011;71113;43.092;-89.268;2023-07-08T00:28:55;14.75;;;6.40;;
78368;SDS011;71113;43.092;-89.268;2023-07-08T00:31:22;14.38;;;6.80;;
78368;SDS011;71113;43.092;-89.268;2023-07-08T00:33:50;14.18;;;6.65;;
78368;SDS011;71113;43.092;-89.268;2023-07-08T00:36:21;16.13;;;7.35;;
78368;SDS011;71113;43.092;-89.268;2023-07-08T00:38:48;13.15;;;6.60;;
78368;SDS011;71113;43.092;-89.268;2023-07-08T00:41:18;14.07;;;6.68;;
78368;SDS011;71113;43.092;-89.268;2023-07-08T00:43:56;14.13;;;6.97;;
78368;SDS011;71113;43.092;-89.268;2023-07-08T00:48:55;12.77;;;6.82;;
78368;SDS011;71113;43.092;-89.268;2023-07-08T00:51:25;14.85;;;7.18;;
78368;SDS011;71113;43.092;-89.268;2023-07-08T00:53:51;15.13;;;6.90;;
78368;SDS011;71113;43.092;-89.268;2023-07-08T00:59:01;14.23;;;6.55;;
78368;SDS011;71113;43.092;-89.268;2023-07-08T01:01:31;12.80;;;6.50;;
78368;SDS011;71113;43.092;-89.268;2023-07-08T01:04:04;12.45;;;6.80;;
78368;SDS011;71113;43.092;-89.268;2023-07-08T01:06:34;13.98;;;6.90;;
78368;SDS011;71113;43.092;-89.268;2023-07-08T01:09:05;12.98;;;6.80;;
78368;SDS011;71113;43.092;-89.268;2023-07-08T01:11:33;16.02;;;6.25;;
78368;SDS011;71113;43.092;-89.268;2023-07-08T01:14:02;15.38;;;7.43;;
78368;SDS011;71113;43.092;-89.268;2023-07-08T01:16:30;15.52;;;6.82;;
78368;SDS011;71113;43.092;-89.268;2023-07-08T01:19:01;17.92;;;7.68;;
78368;SDS011;71113;43.092;-89.268;2023-07-08T01:21:44;18.98;;;8.40;;
78368;SDS011;71113;43.092;-89.268;2023-07-08T01:24:31;28.17;;;11.00;;
78368;SDS011;71113;43.092;-89.268;2023-07-08T01:27:00;27.98;;;11.73;;
78368;SDS011;71113;43.092;-89.268;2023-07-08T01:29:28;31.90;;;12.02;;
78368;SDS011;71113;43.092;-89.268;2023-07-08T01:31:57;25.35;;;11.45;;
78368;SDS011;71113;43.092;-89.268;2023-07-08T01:34:36;26.70;;;12.02;;
78368;SDS011;71113;43.092;-89.268;2023-07-08T01:37:04;24.48;;;11.48;;
78368;SDS011;71113;43.092;-89.268;2023-07-08T01:39:32;28.25;;;11.88;;
78368;SDS011;71113;43.092;-89.268;2023-07-08T01:41:58;25.63;;;10.90;;
78368;SDS011;71113;43.092;-89.268;2023-07-08T01:44:34;23.83;;;10.77;;
78368;SDS011;71113;43.092;-89.268;2023-07-08T01:49:40;24.08;;;9.85;;
78368;SDS011;71113;43.092;-89.268;2023-07-08T01:52:08;21.25;;;9.32;;
78368;SDS011;71113;43.092;-89.268;2023-07-08T01:54:36;21.60;;;8.35;;
78368;SDS011;71113;43.092;-89.268;2023-07-08T01:57:01;22.92;;;9.43;;
78368;SDS011;71113;43.092;-89.268;2023-07-08T01:59:28;20.90;;;8.45;;
78368;SDS011;71113;43.092;-89.268;2023-07-08T02:01:54;17.60;;;7.68;;
78368;SDS011;71113;43.092;-89.268;2023-07-08T02:04:21;15.13;;;6.93;;
78368;SDS011;71113;43.092;-89.268;2023-07-08T02:06:55;17.65;;;7.97;;
78368;SDS011;71113;43.092;-89.268;2023-07-08T02:09:43;17.88;;;7.55;;
78368;SDS011;71113;43.092;-89.268;2023-07-08T02:12:09;14.57;;;7.57;;
78368;SDS011;71113;43.092;-89.268;2023-07-08T02:14:35;16.05;;;6.90;;
78368;SDS011;71113;43.092;-89.268;2023-07-08T02:17:00;14.45;;;6.47;;
78368;SDS011;71113;43.092;-89.268;2023-07-08T02:19:30;17.08;;;7.28;;
78368;SDS011;71113;43.092;-89.268;2023-07-08T02:21:56;15.18;;;6.60;;
78368;SDS011;71113;43.092;-89.268;2023-07-08T02:24:22;13.82;;;6.13;;
78368;SDS011;71113;43.092;-89.268;2023-07-08T02:26:48;12.90;;;6.93;;
78368;SDS011;71113;43.092;-89.268;2023-07-08T02:29:14;12.35;;;5.50;;
78368;SDS011;71113;43.092;-89.268;2023-07-08T02:31:40;10.90;;;5.55;;
78368;SDS011;71113;43.092;-89.268;2023-07-08T02:34:06;15.27;;;6.43;;
78368;SDS011;71113;43.092;-89.268;2023-07-08T02:36:33;18.10;;;6.85;;
78368;SDS011;71113;43.092;-89.268;2023-07-08T02:38:59;18.48;;;6.00;;
78368;SDS011;71113;43.092;-89.268;2023-07-08T02:41:25;18.02;;;7.03;;
78368;SDS011;71113;43.092;-89.268;2023-07-08T02:43:51;23.27;;;6.00;;
78368;SDS011;71113;43.092;-89.268;2023-07-08T02:46:17;19.40;;;5.40;;
78368;SDS011;71113;43.092;-89.268;2023-07-08T02:48:43;24.75;;;5.07;;
78368;SDS011;71113;43.092;-89.268;2023-07-08T02:51:09;23.20;;;5.57;;
78368;SDS011;71113;43.092;-89.268;2023-07-08T02:53:35;17.60;;;4.90;;
78368;SDS011;71113;43.092;-89.268;2023-07-08T02:56:01;18.63;;;4.35;;
78368;SDS011;71113;43.092;-89.268;2023-07-08T02:58:27;13.57;;;3.95;;
78368;SDS011;71113;43.092;-89.268;2023-07-08T03:00:53;16.98;;;4.15;;
78368;SDS011;71113;43.092;-89.268;2023-07-08T03:03:20;14.50;;;4.03;;
78368;SDS011;71113;43.092;-89.268;2023-07-08T03:05:56;9.77;;;3.67;;
78368;SDS011;71113;43.092;-89.268;2023-07-08T03:08:24;11.55;;;3.42;;
78368;SDS011;71113;43.092;-89.268;2023-07-08T03:10:54;9.68;;;3.42;;
78368;SDS011;71113;43.092;-89.268;2023-07-08T03:13:24;13.20;;;3.70;;
78368;SDS011;71113;43.092;-89.268;2023-07-08T03:15:51;11.93;;;3.88;;
78368;SDS011;71113;43.092;-89.268;2023-07-08T03:18:17;9.73;;;3.30;;
78368;SDS011;71113;43.092;-89.268;2023-07-08T03:20:47;9.30;;;3.65;;
78368;SDS011;71113;43.092;-89.268;2023-07-08T03:23:13;7.97;;;3.25;;
78368;SDS011;71113;43.092;-89.268;2023-07-08T03:25:39;9.05;;;3.15;;
78368;SDS011;71113;43.092;-89.268;2023-07-08T03:28:06;6.97;;;3.03;;
78368;SDS011;71113;43.092;-89.268;2023-07-08T03:30:33;6.97;;;2.90;;
78368;SDS011;71113;43.092;-89.268;2023-07-08T03:32:59;6.40;;;2.92;;
78368;SDS011;71113;43.092;-89.268;2023-07-08T03:35:25;7.07;;;2.97;;
78368;SDS011;71113;43.092;-89.268;2023-07-08T03:37:52;5.07;;;2.78;;
78368;SDS011;71113;43.092;-89.268;2023-07-08T03:40:18;6.35;;;3.20;;
78368;SDS011;71113;43.092;-89.268;2023-07-08T03:42:44;7.05;;;3.17;;
78368;SDS011;71113;43.092;-89.268;2023-07-08T03:45:10;5.88;;;3.00;;
78368;SDS011;71113;43.092;-89.268;2023-07-08T03:47:36;5.50;;;3.00;;
78368;SDS011;71113;43.092;-89.268;2023-07-08T03:50:02;4.60;;;2.75;;
78368;SDS011;71113;43.092;-89.268;2023-07-08T03:52:28;5.35;;;2.50;;
78368;SDS011;71113;43.092;-89.268;2023-07-08T03:54:54;6.47;;;2.50;;
78368;SDS011;71113;43.092;-89.268;2023-07-08T03:57:40;5.28;;;2.72;;
78368;SDS011;71113;43.092;-89.268;2023-07-08T04:00:06;6.72;;;2.80;;
78368;SDS011;71113;43.092;-89.268;2023-07-08T04:02:40;6.18;;;3.25;;
78368;SDS011;71113;43.092;-89.268;2023-07-08T04:05:12;4.80;;;2.50;;
78368;SDS011;71113;43.092;-89.268;2023-07-08T04:07:40;5.25;;;2.75;;
78368;SDS011;71113;43.092;-89.268;2023-07-08T04:10:06;4.28;;;2.40;;
78368;SDS011;71113;43.092;-89.268;2023-07-08T04:12:33;4.10;;;2.40;;
78368;SDS011;71113;43.092;-89.268;2023-07-08T04:14:59;7.13;;;2.67;;
78368;SDS011;71113;43.092;-89.268;2023-07-08T04:17:25;4.68;;;2.40;;
78368;SDS011;71113;43.092;-89.268;2023-07-08T04:19:51;5.18;;;2.38;;
78368;SDS011;71113;43.092;-89.268;2023-07-08T04:22:17;5.05;;;2.45;;
78368;SDS011;71113;43.092;-89.268;2023-07-08T04:24:43;7.13;;;3.00;;
78368;SDS011;71113;43.092;-89.268;2023-07-08T04:27:13;5.05;;;2.42;;
78368;SDS011;71113;43.092;-89.268;2023-07-08T04:29:40;5.63;;;2.40;;
78368;SDS011;71113;43.092;-89.268;2023-07-08T04:32:07;5.75;;;2.40;;
78368;SDS011;71113;43.092;-89.268;2023-07-08T04:34:33;3.78;;;1.90;;
78368;SDS011;71113;43.092;-89.268;2023-07-08T04:36:59;4.65;;;2.10;;
78368;SDS011;71113;43.092;-89.268;2023-07-08T04:39:24;5.20;;;1.90;;
78368;SDS011;71113;43.092;-89.268;2023-07-08T04:41:51;4.70;;;2.10;;
78368;SDS011;71113;43.092;-89.268;2023-07-08T04:44:17;4.55;;;2.28;;
78368;SDS011;71113;43.092;-89.268;2023-07-08T04:46:53;4.43;;;2.25;;
78368;SDS011;71113;43.092;-89.268;2023-07-08T04:49:21;3.95;;;2.50;;
78368;SDS011;71113;43.092;-89.268;2023-07-08T04:51:50;5.45;;;2.28;;
78368;SDS011;71113;43.092;-89.268;2023-07-08T04:54:16;4.85;;;2.00;;
78368;SDS011;71113;43.092;-89.268;2023-07-08T04:56:43;3.58;;;2.00;;
78368;SDS011;71113;43.092;-89.268;2023-07-08T04:59:13;5.95;;;2.30;;
78368;SDS011;71113;43.092;-89.268;2023-07-08T05:01:41;3.90;;;2.28;;
78368;SDS011;71113;43.092;-89.268;2023-07-08T05:04:07;5.63;;;2.50;;
78368;SDS011;71113;43.092;-89.268;2023-07-08T05:06:34;4.95;;;2.30;;
78368;SDS011;71113;43.092;-89.268;2023-07-08T05:09:01;4.57;;;2.08;;
78368;SDS011;71113;43.092;-89.268;2023-07-08T05:11:28;4.05;;;2.17;;
78368;SDS011;71113;43.092;-89.268;2023-07-08T05:13:54;3.85;;;2.22;;
78368;SDS011;71113;43.092;-89.268;2023-07-08T05:16:20;4.45;;;2.00;;
78368;SDS011;71113;43.092;-89.268;2023-07-08T05:18:46;4.65;;;2.15;;
78368;SDS011;71113;43.092;-89.268;2023-07-08T05:21:12;4.35;;;2.10;;
78368;SDS011;71113;43.092;-89.268;2023-07-08T05:23:39;5.65;;;2.00;;
78368;SDS011;71113;43.092;-89.268;2023-07-08T05:26:05;3.17;;;1.90;;
78368;SDS011;71113;43.092;-89.268;2023-07-08T05:28:32;3.97;;;1.90;;
78368;SDS011;71113;43.092;-89.268;2023-07-08T05:30:59;6.32;;;2.22;;
78368;SDS011;71113;43.092;-89.268;2023-07-08T05:33:28;3.20;;;1.88;;
78368;SDS011;71113;43.092;-89.268;2023-07-08T05:35:55;4.75;;;2.33;;
78368;SDS011;71113;43.092;-89.268;2023-07-08T05:38:21;3.00;;;1.92;;
78368;SDS011;71113;43.092;-89.268;2023-07-08T05:40:50;3.20;;;1.85;;
78368;SDS011;71113;43.092;-89.268;2023-07-08T05:43:19;3.00;;;1.80;;
78368;SDS011;71113;43.092;-89.268;2023-07-08T05:45:45;3.50;;;2.00;;
78368;SDS011;71113;43.092;-89.268;2023-07-08T05:48:18;3.00;;;1.65;;
78368;SDS011;71113;43.092;-89.268;2023-07-08T05:50:44;6.22;;;2.22;;
78368;SDS011;71113;43.092;-89.268;2023-07-08T05:53:11;3.42;;;1.83;;
78368;SDS011;71113;43.092;-89.268;2023-07-08T05:55:37;4.50;;;1.85;;
78368;SDS011;71113;43.092;-89.268;2023-07-08T05:58:05;4.57;;;1.80;;
78368;SDS011;71113;43.092;-89.268;2023-07-08T06:00:31;4.25;;;2.05;;
78368;SDS011;71113;43.092;-89.268;2023-07-08T06:02:57;5.43;;;2.13;;
78368;SDS011;71113;43.092;-89.268;2023-07-08T06:05:43;3.13;;;1.80;;
78368;SDS011;71113;43.092;-89.268;2023-07-08T06:08:08;3.58;;;1.92;;
78368;SDS011;71113;43.092;-89.268;2023-07-08T06:10:34;4.15;;;1.95;;
78368;SDS011;71113;43.092;-89.268;2023-07-08T06:13:06;4.90;;;1.95;;
78368;SDS011;71113;43.092;-89.268;2023-07-08T06:15:32;3.45;;;1.80;;
78368;SDS011;71113;43.092;-89.268;2023-07-08T06:17:58;3.13;;;1.70;;
78368;SDS011;71113;43.092;-89.268;2023-07-08T06:20:27;3.40;;;1.73;;
78368;SDS011;71113;43.092;-89.268;2023-07-08T06:22:53;3.13;;;2.00;;
78368;SDS011;71113;43.092;-89.268;2023-07-08T06:25:19;4.95;;;1.80;;
78368;SDS011;71113;43.092;-89.268;2023-07-08T06:27:46;3.92;;;1.90;;
78368;SDS011;71113;43.092;-89.268;2023-07-08T06:30:11;3.03;;;1.80;;
78368;SDS011;71113;43.092;-89.268;2023-07-08T06:32:38;2.70;;;1.60;;
78368;SDS011;71113;43.092;-89.268;2023-07-08T06:35:04;2.80;;;1.60;;
78368;SDS011;71113;43.092;-89.268;2023-07-08T06:37:30;3.67;;;1.63;;
78368;SDS011;71113;43.092;-89.268;2023-07-08T06:39:56;3.40;;;1.85;;
78368;SDS011;71113;43.092;-89.268;2023-07-08T06:42:22;5.15;;;1.98;;
78368;SDS011;71113;43.092;-89.268;2023-07-08T06:44:48;3.70;;;1.88;;
78368;SDS011;71113;43.092;-89.268;2023-07-08T06:47:18;3.00;;;1.70;;
78368;SDS011;71113;43.092;-89.268;2023-07-08T06:49:45;3.67;;;1.90;;
78368;SDS011;71113;43.092;-89.268;2023-07-08T06:52:12;5.20;;;2.00;;
78368;SDS011;71113;43.092;-89.268;2023-07-08T06:54:38;3.40;;;1.70;;
78368;SDS011;71113;43.092;-89.268;2023-07-08T06:57:04;2.90;;;1.90;;
78368;SDS011;71113;43.092;-89.268;2023-07-08T06:59:30;2.70;;;1.58;;
78368;SDS011;71113;43.092;-89.268;2023-07-08T07:01:57;2.97;;;1.58;;
78368;SDS011;71113;43.092;-89.268;2023-07-08T07:04:22;3.65;;;1.80;;
78368;SDS011;71113;43.092;-89.268;2023-07-08T07:06:48;2.60;;;1.60;;
78368;SDS011;71113;43.092;-89.268;2023-07-08T07:09:14;2.85;;;1.52;;
78368;SDS011;71113;43.092;-89.268;2023-07-08T07:11:40;3.88;;;1.80;;
78368;SDS011;71113;43.092;-89.268;2023-07-08T07:14:06;2.80;;;1.80;;
78368;SDS011;71113;43.092;-89.268;2023-07-08T07:16:32;3.15;;;1.90;;
78368;SDS011;71113;43.092;-89.268;2023-07-08T07:18:58;3.05;;;2.00;;
78368;SDS011;71113;43.092;-89.268;2023-07-08T07:21:24;2.90;;;1.88;;
78368;SDS011;71113;43.092;-89.268;2023-07-08T07:23:49;3.47;;;2.10;;
78368;SDS011;71113;43.092;-89.268;2023-07-08T07:26:15;3.63;;;2.03;;
78368;SDS011;71113;43.092;-89.268;2023-07-08T07:28:41;3.00;;;2.00;;
78368;SDS011;71113;43.092;-89.268;2023-07-08T07:31:07;3.67;;;1.88;;
78368;SDS011;71113;43.092;-89.268;2023-07-08T07:33:36;4.97;;;2.33;;
78368;SDS011;71113;43.092;-89.268;2023-07-08T07:36:02;3.95;;;2.05;;
78368;SDS011;71113;43.092;-89.268;2023-07-08T07:38:28;4.35;;;2.30;;
78368;SDS011;71113;43.092;-89.268;2023-07-08T07:40:55;7.43;;;2.22;;
78368;SDS011;71113;43.092;-89.268;2023-07-08T07:43:21;6.25;;;2.22;;
78368;SDS011;71113;43.092;-89.268;2023-07-08T07:45:53;4.32;;;2.90;;
78368;SDS011;71113;43.092;-89.268;2023-07-08T07:48:19;8.60;;;2.40;;
78368;SDS011;71113;43.092;-89.268;2023-07-08T07:50:46;5.68;;;2.58;;
78368;SDS011;71113;43.092;-89.268;2023-07-08T07:53:13;4.57;;;2.30;;
78368;SDS011;71113;43.092;-89.268;2023-07-08T07:55:39;4.00;;;2.10;;
78368;SDS011;71113;43.092;-89.268;2023-07-08T07:58:05;3.17;;;1.85;;
78368;SDS011;71113;43.092;-89.268;2023-07-08T08:00:33;5.20;;;2.20;;
78368;SDS011;71113;43.092;-89.268;2023-07-08T08:02:59;6.28;;;2.30;;
78368;SDS011;71113;43.092;-89.268;2023-07-08T08:05:25;4.53;;;1.95;;
78368;SDS011;71113;43.092;-89.268;2023-07-08T08:07:51;3.75;;;2.28;;
78368;SDS011;71113;43.092;-89.268;2023-07-08T08:10:17;4.00;;;2.40;;
78368;SDS011;71113;43.092;-89.268;2023-07-08T08:12:43;4.80;;;2.50;;
78368;SDS011;71113;43.092;-89.268;2023-07-08T08:15:09;4.63;;;2.40;;
78368;SDS011;71113;43.092;-89.268;2023-07-08T08:17:35;5.90;;;2.60;;
78368;SDS011;71113;43.092;-89.268;2023-07-08T08:20:01;5.15;;;2.45;;
78368;SDS011;71113;43.092;-89.268;2023-07-08T08:22:27;4.00;;;2.50;;
78368;SDS011;71113;43.092;-89.268;2023-07-08T08:24:53;3.28;;;2.08;;
78368;SDS011;71113;43.092;-89.268;2023-07-08T08:27:19;4.00;;;2.65;;
78368;SDS011;71113;43.092;-89.268;2023-07-08T08:29:45;4.65;;;2.70;;
78368;SDS011;71113;43.092;-89.268;2023-07-08T08:32:11;4.68;;;2.50;;
78368;SDS011;71113;43.092;-89.268;2023-07-08T08:34:37;4.05;;;2.70;;
78368;SDS011;71113;43.092;-89.268;2023-07-08T08:37:03;4.35;;;2.30;;
78368;SDS011;71113;43.092;-89.268;2023-07-08T08:39:29;4.63;;;2.90;;
78368;SDS011;71113;43.092;-89.268;2023-07-08T08:41:55;3.92;;;2.50;;
78368;SDS011;71113;43.092;-89.268;2023-07-08T08:44:29;5.97;;;2.55;;
78368;SDS011;71113;43.092;-89.268;2023-07-08T08:47:05;3.47;;;2.38;;
78368;SDS011;71113;43.092;-89.268;2023-07-08T08:49:37;5.15;;;2.83;;
78368;SDS011;71113;43.092;-89.268;2023-07-08T08:52:07;3.80;;;2.47;;
78368;SDS011;71113;43.092;-89.268;2023-07-08T08:54:33;4.35;;;2.25;;
78368;SDS011;71113;43.092;-89.268;2023-07-08T08:57:04;6.03;;;2.97;;
78368;SDS011;71113;43.092;-89.268;2023-07-08T08:59:54;4.82;;;2.47;;
78368;SDS011;71113;43.092;-89.268;2023-07-08T09:04:49;4.25;;;2.60;;
78368;SDS011;71113;43.092;-89.268;2023-07-08T09:07:16;3.00;;;2.08;;
78368;SDS011;71113;43.092;-89.268;2023-07-08T09:09:58;4.30;;;3.05;;
78368;SDS011;71113;43.092;-89.268;2023-07-08T09:12:29;4.85;;;2.65;;
78368;SDS011;71113;43.092;-89.268;2023-07-08T09:14:57;4.25;;;2.20;;
78368;SDS011;71113;43.092;-89.268;2023-07-08T09:17:28;3.72;;;2.33;;
78368;SDS011;71113;43.092;-89.268;2023-07-08T09:20:00;6.53;;;2.83;;
78368;SDS011;71113;43.092;-89.268;2023-07-08T09:22:40;5.00;;;2.53;;
78368;SDS011;71113;43.092;-89.268;2023-07-08T09:30:26;3.75;;;2.22;;
78368;SDS011;71113;43.092;-89.268;2023-07-08T09:32:55;8.95;;;2.72;;
78368;SDS011;71113;43.092;-89.268;2023-07-08T09:35:23;3.50;;;2.40;;
78368;SDS011;71113;43.092;-89.268;2023-07-08T09:37:51;4.72;;;2.67;;
78368;SDS011;71113;43.092;-89.268;2023-07-08T09:40:19;3.55;;;2.35;;
78368;SDS011;71113;43.092;-89.268;2023-07-08T09:42:56;3.92;;;2.20;;
78368;SDS011;71113;43.092;-89.268;2023-07-08T09:45:27;4.93;;;2.40;;
78368;SDS011;71113;43.092;-89.268;2023-07-08T09:47:55;4.35;;;2.20;;
78368;SDS011;71113;43.092;-89.268;2023-07-08T09:50:23;4.10;;;2.70;;
78368;SDS011;71113;43.092;-89.268;2023-07-08T09:52:52;9.70;;;2.50;;
78368;SDS011;71113;43.092;-89.268;2023-07-08T09:55:22;2.97;;;2.03;;
78368;SDS011;71113;43.092;-89.268;2023-07-08T09:57:50;7.35;;;2.50;;
78368;SDS011;71113;43.092;-89.268;2023-07-08T10:00:19;2.83;;;1.60;;
78368;SDS011;71113;43.092;-89.268;2023-07-08T10:02:55;3.10;;;1.50;;
78368;SDS011;71113;43.092;-89.268;2023-07-08T10:05:23;2.30;;;1.30;;
78368;SDS011;71113;43.092;-89.268;2023-07-08T10:08:00;2.67;;;1.27;;
78368;SDS011;71113;43.092;-89.268;2023-07-08T10:10:36;3.55;;;1.20;;
78368;SDS011;71113;43.092;-89.268;2023-07-08T10:13:24;2.17;;;1.30;;
78368;SDS011;71113;43.092;-89.268;2023-07-08T10:16:06;2.90;;;1.05;;
78368;SDS011;71113;43.092;-89.268;2023-07-08T10:18:42;1.42;;;1.13;;
78368;SDS011;71113;43.092;-89.268;2023-07-08T10:21:12;1.63;;;0.93;;
78368;SDS011;71113;43.092;-89.268;2023-07-08T10:26:25;3.10;;;1.20;;
78368;SDS011;71113;43.092;-89.268;2023-07-08T10:32:06;3.80;;;1.63;;
78368;SDS011;71113;43.092;-89.268;2023-07-08T10:43:22;1.63;;;1.05;;
78368;SDS011;71113;43.092;-89.268;2023-07-08T10:49:29;4.80;;;1.40;;
78368;SDS011;71113;43.092;-89.268;2023-07-08T10:52:18;2.10;;;1.20;;
78368;SDS011;71113;43.092;-89.268;2023-07-08T10:55:14;2.03;;;1.20;;
78368;SDS011;71113;43.092;-89.268;2023-07-08T11:00:57;7.43;;;1.10;;
78368;SDS011;71113;43.092;-89.268;2023-07-08T11:06:22;2.70;;;1.20;;
78368;SDS011;71113;43.092;-89.268;2023-07-08T11:08:55;2.95;;;0.85;;
78368;SDS011;71113;43.092;-89.268;2023-07-08T11:14:10;13.10;;;1.40;;
78368;SDS011;71113;43.092;-89.268;2023-07-08T11:16:40;4.25;;;1.10;;
78368;SDS011;71113;43.092;-89.268;2023-07-08T11:21:49;3.63;;;1.02;;
78368;SDS011;71113;43.092;-89.268;2023-07-08T11:24:37;4.13;;;0.93;;
78368;SDS011;71113;43.092;-89.268;2023-07-08T11:30:11;4.47;;;1.23;;
78368;SDS011;71113;43.092;-89.268;2023-07-08T11:32:38;8.95;;;1.13;;
78368;SDS011;71113;43.092;-89.268;2023-07-08T11:35:07;4.97;;;1.00;;
78368;SDS011;71113;43.092;-89.268;2023-07-08T11:37:44;4.78;;;1.30;;
78368;SDS011;71113;43.092;-89.268;2023-07-08T11:42:50;4.88;;;0.90;;
78368;SDS011;71113;43.092;-89.268;2023-07-08T11:47:47;2.58;;;1.02;;
78368;SDS011;71113;43.092;-89.268;2023-07-08T11:52:59;1.40;;;0.80;;
78368;SDS011;71113;43.092;-89.268;2023-07-08T11:55:37;0.98;;;0.88;;
78368;SDS011;71113;43.092;-89.268;2023-07-08T11:58:08;1.63;;;0.80;;
78368;SDS011;71113;43.092;-89.268;2023-07-08T12:01:23;2.38;;;0.93;;
78368;SDS011;71113;43.092;-89.268;2023-07-08T12:04:00;1.02;;;0.60;;
78368;SDS011;71113;43.092;-89.268;2023-07-08T12:06:42;2.97;;;0.80;;
78368;SDS011;71113;43.092;-89.268;2023-07-08T12:09:29;5.80;;;1.00;;
78368;SDS011;71113;43.092;-89.268;2023-07-08T12:12:02;2.05;;;0.88;;
78368;SDS011;71113;43.092;-89.268;2023-07-08T12:14:31;2.22;;;0.80;;
78368;SDS011;71113;43.092;-89.268;2023-07-08T12:16:58;3.95;;;1.70;;
78368;SDS011;71113;43.092;-89.268;2023-07-08T12:19:25;7.60;;;1.10;;
78368;SDS011;71113;43.092;-89.268;2023-07-08T12:21:55;5.38;;;1.35;;
78368;SDS011;71113;43.092;-89.268;2023-07-08T12:24:21;2.55;;;1.05;;
78368;SDS011;71113;43.092;-89.268;2023-07-08T12:26:51;10.27;;;1.30;;
78368;SDS011;71113;43.092;-89.268;2023-07-08T12:29:17;5.13;;;1.02;;
78368;SDS011;71113;43.092;-89.268;2023-07-08T12:31:44;2.33;;;0.82;;
78368;SDS011;71113;43.092;-89.268;2023-07-08T12:34:12;4.47;;;0.93;;
78368;SDS011;71113;43.092;-89.268;2023-07-08T12:36:40;2.78;;;1.20;;
78368;SDS011;71113;43.092;-89.268;2023-07-08T12:39:08;5.22;;;0.98;;
78368;SDS011;71113;43.092;-89.268;2023-07-08T12:41:40;3.38;;;0.75;;
78368;SDS011;71113;43.092;-89.268;2023-07-08T12:44:17;12.75;;;1.02;;
78368;SDS011;71113;43.092;-89.268;2023-07-08T12:46:46;9.35;;;1.20;;
78368;SDS011;71113;43.092;-89.268;2023-07-08T12:49:13;4.18;;;1.30;;
78368;SDS011;71113;43.092;-89.268;2023-07-08T12:51:42;3.78;;;0.90;;
78368;SDS011;71113;43.092;-89.268;2023-07-08T12:54:10;4.03;;;0.80;;
78368;SDS011;71113;43.092;-89.268;2023-07-08T12:56:37;2.42;;;0.75;;
78368;SDS011;71113;43.092;-89.268;2023-07-08T12:59:05;0.75;;;0.73;;
78368;SDS011;71113;43.092;-89.268;2023-07-08T13:01:33;0.70;;;0.60;;
78368;SDS011;71113;43.092;-89.268;2023-07-08T13:04:04;0.77;;;0.68;;
78368;SDS011;71113;43.092;-89.268;2023-07-08T13:06:47;1.00;;;0.60;;
78368;SDS011;71113;43.092;-89.268;2023-07-08T13:09:23;0.88;;;0.70;;
78368;SDS011;71113;43.092;-89.268;2023-07-08T13:11:50;1.15;;;0.68;;
78368;SDS011;71113;43.092;-89.268;2023-07-08T13:14:17;0.93;;;0.60;;
78368;SDS011;71113;43.092;-89.268;2023-07-08T13:16:45;0.88;;;0.57;;
78368;SDS011;71113;43.092;-89.268;2023-07-08T13:19:11;0.70;;;0.60;;
78368;SDS011;71113;43.092;-89.268;2023-07-08T13:21:39;2.28;;;0.75;;
78368;SDS011;71113;43.092;-89.268;2023-07-08T13:24:11;0.40;;;0.40;;
78368;SDS011;71113;43.092;-89.268;2023-07-08T13:26:37;3.17;;;0.77;;
78368;SDS011;71113;43.092;-89.268;2023-07-08T13:29:04;2.38;;;0.63;;
78368;SDS011;71113;43.092;-89.268;2023-07-08T13:31:37;6.00;;;1.08;;
78368;SDS011;71113;43.092;-89.268;2023-07-08T13:34:09;6.15;;;1.10;;
78368;SDS011;71113;43.092;-89.268;2023-07-08T13:36:42;2.22;;;0.90;;
78368;SDS011;71113;43.092;-89.268;2023-07-08T13:39:14;3.65;;;0.60;;
78368;SDS011;71113;43.092;-89.268;2023-07-08T13:41:44;1.85;;;0.80;;
78368;SDS011;71113;43.092;-89.268;2023-07-08T13:44:11;5.53;;;0.93;;
78368;SDS011;71113;43.092;-89.268;2023-07-08T13:46:45;3.60;;;1.00;;
78368;SDS011;71113;43.092;-89.268;2023-07-08T13:49:13;0.75;;;0.50;;
78368;SDS011;71113;43.092;-89.268;2023-07-08T13:51:44;3.47;;;0.75;;
78368;SDS011;71113;43.092;-89.268;2023-07-08T13:54:17;2.33;;;0.70;;
78368;SDS011;71113;43.092;-89.268;2023-07-08T13:56:47;1.73;;;0.80;;
78368;SDS011;71113;43.092;-89.268;2023-07-08T13:59:21;3.10;;;1.08;;
78368;SDS011;71113;43.092;-89.268;2023-07-08T14:01:48;1.77;;;0.70;;
78368;SDS011;71113;43.092;-89.268;2023-07-08T14:04:18;1.55;;;0.50;;
78368;SDS011;71113;43.092;-89.268;2023-07-08T14:06:47;0.85;;;0.63;;
78368;SDS011;71113;43.092;-89.268;2023-07-08T14:09:18;1.73;;;0.50;;
78368;SDS011;71113;43.092;-89.268;2023-07-08T14:11:46;0.68;;;0.60;;
78368;SDS011;71113;43.092;-89.268;2023-07-08T14:14:13;1.65;;;0.80;;
78368;SDS011;71113;43.092;-89.268;2023-07-08T14:16:41;2.45;;;0.80;;
78368;SDS011;71113;43.092;-89.268;2023-07-08T14:19:13;1.75;;;0.70;;
78368;SDS011;71113;43.092;-89.268;2023-07-08T14:21:42;5.18;;;1.90;;
78368;SDS011;71113;43.092;-89.268;2023-07-08T14:24:10;1.58;;;0.80;;
78368;SDS011;71113;43.092;-89.268;2023-07-08T14:26:38;0.60;;;0.55;;
78368;SDS011;71113;43.092;-89.268;2023-07-08T14:29:06;1.33;;;0.80;;
78368;SDS011;71113;43.092;-89.268;2023-07-08T14:31:32;1.70;;;0.77;;
78368;SDS011;71113;43.092;-89.268;2023-07-08T14:34:03;2.85;;;0.90;;
78368;SDS011;71113;43.092;-89.268;2023-07-08T14:36:33;1.13;;;0.80;;
78368;SDS011;71113;43.092;-89.268;2023-07-08T14:39:00;1.50;;;0.90;;
78368;SDS011;71113;43.092;-89.268;2023-07-08T14:41:26;2.58;;;0.82;;
78368;SDS011;71113;43.092;-89.268;2023-07-08T14:43:53;1.17;;;0.68;;
78368;SDS011;71113;43.092;-89.268;2023-07-08T14:46:20;2.13;;;0.60;;
78368;SDS011;71113;43.092;-89.268;2023-07-08T14:48:46;1.10;;;0.80;;
78368;SDS011;71113;43.092;-89.268;2023-07-08T14:51:11;3.25;;;0.88;;
78368;SDS011;71113;43.092;-89.268;2023-07-08T14:53:37;1.00;;;0.70;;
78368;SDS011;71113;43.092;-89.268;2023-07-08T14:56:11;1.95;;;0.80;;
78368;SDS011;71113;43.092;-89.268;2023-07-08T14:58:41;2.53;;;0.70;;
78368;SDS011;71113;43.092;-89.268;2023-07-08T15:01:12;4.00;;;1.00;;
78368;SDS011;71113;43.092;-89.268;2023-07-08T15:03:44;4.63;;;1.20;;
78368;SDS011;71113;43.092;-89.268;2023-07-08T15:06:10;1.17;;;0.77;;
78368;SDS011;71113;43.092;-89.268;2023-07-08T15:08:36;2.83;;;0.80;;
78368;SDS011;71113;43.092;-89.268;2023-07-08T15:11:02;2.72;;;1.02;;
78368;SDS011;71113;43.092;-89.268;2023-07-08T15:13:31;2.83;;;0.85;;
78368;SDS011;71113;43.092;-89.268;2023-07-08T15:15:58;2.50;;;1.00;;
78368;SDS011;71113;43.092;-89.268;2023-07-08T15:18:27;4.30;;;0.80;;
78368;SDS011;71113;43.092;-89.268;2023-07-08T15:20:52;2.20;;;0.70;;
78368;SDS011;71113;43.092;-89.268;2023-07-08T15:23:19;4.53;;;1.00;;
78368;SDS011;71113;43.092;-89.268;2023-07-08T15:25:45;2.33;;;0.93;;
78368;SDS011;71113;43.092;-89.268;2023-07-08T15:28:33;2.92;;;0.98;;